sensor_id;sensor_type;location;lat;lon;timestamp;temperature;humidity
23137;DHT22;11737;50.558;7.258;2023-02-28T00:01:14;2.50;99.90
23137;DHT22;11737;50.558;7.258;2023-02-28T00:03:42;2.50;99.90
23137;DHT22;11737;50.558;7.258;2023-02-28T00:06:09;2.60;99.90
23137;DHT22;11737;50.558;7.258;2023-02-28T00:08:37;2.50;99.90
23137;DHT22;11737;50.558;7.258;2023-02-28T00:11:09;2.40;99.90
23137;DHT22;11737;50.558;7.258;2023-02-28T00:13:38;2.40;99.90
23137;DHT22;11737;50.558;7.258;2023-02-28T00:16:08;2.30;99.90
23137;DHT22;11737;50.558;7.258;2023-02-28T00:18:36;2.30;99.90
23137;DHT22;11737;50.558;7.258;2023-02-28T00:21:04;2.30;99.90
23137;DHT22;11737;50.558;7.258;2023-02-28T00:23:32;2.30;99.90
23137;DHT22;11737;50.558;7.258;2023-02-28T00:26:00;2.30;99.90
23137;DHT22;11737;50.558;7.258;2023-02-28T00:28:27;2.30;99.90
23137;DHT22;11737;50.558;7.258;2023-02-28T00:30:55;2.30;99.90
23137;DHT22;11737;50.558;7.258;2023-02-28T00:33:23;2.30;99.90
23137;DHT22;11737;50.558;7.258;2023-02-28T00:35:51;2.40;99.90
23137;DHT22;11737;50.558;7.258;2023-02-28T00:38:18;2.40;99.90
23137;DHT22;11737;50.558;7.258;2023-02-28T00:40:46;2.40;99.90
23137;DHT22;11737;50.558;7.258;2023-02-28T00:43:13;2.50;99.90
23137;DHT22;11737;50.558;7.258;2023-02-28T00:45:41;2.50;99.90
23137;DHT22;11737;50.558;7.258;2023-02-28T00:48:08;2.50;99.90
23137;DHT22;11737;50.558;7.258;2023-02-28T00:50:36;2.50;99.90
23137;DHT22;11737;50.558;7.258;2023-02-28T00:53:03;2.50;99.90
23137;DHT22;11737;50.558;7.258;2023-02-28T00:55:31;2.60;99.90
23137;DHT22;11737;50.558;7.258;2023-02-28T00:57:58;2.70;99.90
23137;DHT22;11737;50.558;7.258;2023-02-28T01:00:26;2.80;99.90
23137;DHT22;11737;50.558;7.258;2023-02-28T01:02:53;2.90;99.90
23137;DHT22;11737;50.558;7.258;2023-02-28T01:05:21;3.00;99.90
23137;DHT22;11737;50.558;7.258;2023-02-28T01:07:48;3.10;99.90
23137;DHT22;11737;50.558;7.258;2023-02-28T01:10:16;3.10;99.90
23137;DHT22;11737;50.558;7.258;2023-02-28T01:12:43;3.10;99.90
23137;DHT22;11737;50.558;7.258;2023-02-28T01:15:11;3.10;99.90
23137;DHT22;11737;50.558;7.258;2023-02-28T01:17:38;3.10;99.90
23137;DHT22;11737;50.558;7.258;2023-02-28T01:20:07;3.20;99.90
23137;DHT22;11737;50.558;7.258;2023-02-28T01:22:36;3.10;99.90
23137;DHT22;11737;50.558;7.258;2023-02-28T01:25:03;3.10;99.90
23137;DHT22;11737;50.558;7.258;2023-02-28T01:27:31;3.10;99.90
23137;DHT22;11737;50.558;7.258;2023-02-28T01:29:58;3.10;99.90
23137;DHT22;11737;50.558;7.258;2023-02-28T01:32:26;3.00;99.90
23137;DHT22;11737;50.558;7.258;2023-02-28T01:34:53;3.00;99.90
23137;DHT22;11737;50.558;7.258;2023-02-28T01:37:21;3.00;99.90
23137;DHT22;11737;50.558;7.258;2023-02-28T01:39:49;2.90;99.90
23137;DHT22;11737;50.558;7.258;2023-02-28T01:42:16;2.90;99.90
23137;DHT22;11737;50.558;7.258;2023-02-28T01:45:23;3.00;99.90
23137;DHT22;11737;50.558;7.258;2023-02-28T01:48:07;3.00;99.90
23137;DHT22;11737;50.558;7.258;2023-02-28T01:50:34;2.90;99.90
23137;DHT22;11737;50.558;7.258;2023-02-28T01:53:04;2.80;99.90
23137;DHT22;11737;50.558;7.258;2023-02-28T01:55:33;2.80;99.90
23137;DHT22;11737;50.558;7.258;2023-02-28T01:58:04;2.70;99.90
23137;DHT22;11737;50.558;7.258;2023-02-28T02:00:32;2.70;99.90
23137;DHT22;11737;50.558;7.258;2023-02-28T02:03:11;2.70;99.90
23137;DHT22;11737;50.558;7.258;2023-02-28T02:05:33;2.60;99.90
23137;DHT22;11737;50.558;7.258;2023-02-28T02:08:05;2.50;99.90
23137;DHT22;11737;50.558;7.258;2023-02-28T02:16:42;2.50;99.90
23137;DHT22;11737;50.558;7.258;2023-02-28T02:22:34;2.50;99.90
23137;DHT22;11737;50.558;7.258;2023-02-28T02:25:28;2.50;99.90
23137;DHT22;11737;50.558;7.258;2023-02-28T02:31:33;2.40;99.90
23137;DHT22;11737;50.558;7.258;2023-02-28T02:37:25;2.40;99.90
23137;DHT22;11737;50.558;7.258;2023-02-28T02:40:14;2.30;99.90
23137;DHT22;11737;50.558;7.258;2023-02-28T02:42:56;2.30;99.90
23137;DHT22;11737;50.558;7.258;2023-02-28T02:48:21;2.30;99.90
23137;DHT22;11737;50.558;7.258;2023-02-28T02:50:52;2.20;99.90
23137;DHT22;11737;50.558;7.258;2023-02-28T02:53:23;2.20;99.90
23137;DHT22;11737;50.558;7.258;2023-02-28T02:55:52;2.20;99.90
23137;DHT22;11737;50.558;7.258;2023-02-28T02:58:24;2.20;99.90
23137;DHT22;11737;50.558;7.258;2023-02-28T03:00:58;2.10;99.90
23137;DHT22;11737;50.558;7.258;2023-02-28T03:03:22;2.00;99.90
23137;DHT22;11737;50.558;7.258;2023-02-28T03:05:52;2.00;99.90
23137;DHT22;11737;50.558;7.258;2023-02-28T03:08:19;2.00;99.90
23137;DHT22;11737;50.558;7.258;2023-02-28T03:10:49;2.00;99.90
23137;DHT22;11737;50.558;7.258;2023-02-28T03:24:58;2.10;99.90
23137;DHT22;11737;50.558;7.258;2023-02-28T03:27:34;2.10;99.90
23137;DHT22;11737;50.558;7.258;2023-02-28T03:33:06;1.80;99.90
23137;DHT22;11737;50.558;7.258;2023-02-28T03:35:58;1.70;99.90
23137;DHT22;11737;50.558;7.258;2023-02-28T03:41:57;1.70;99.90
23137;DHT22;11737;50.558;7.258;2023-02-28T03:44:36;1.70;99.90
23137;DHT22;11737;50.558;7.258;2023-02-28T03:47:13;1.60;99.90
23137;DHT22;11737;50.558;7.258;2023-02-28T03:52:34;1.30;99.90
23137;DHT22;11737;50.558;7.258;2023-02-28T03:55:04;1.00;99.90
23137;DHT22;11737;50.558;7.258;2023-02-28T03:57:43;0.90;99.90
23137;DHT22;11737;50.558;7.258;2023-02-28T04:03:23;0.80;99.90
23137;DHT22;11737;50.558;7.258;2023-02-28T04:08:39;1.10;99.90
23137;DHT22;11737;50.558;7.258;2023-02-28T04:11:20;1.20;99.90
23137;DHT22;11737;50.558;7.258;2023-02-28T04:13:37;1.30;99.90
23137;DHT22;11737;50.558;7.258;2023-02-28T04:16:08;1.20;99.90
23137;DHT22;11737;50.558;7.258;2023-02-28T04:18:58;1.30;99.90
23137;DHT22;11737;50.558;7.258;2023-02-28T04:21:47;1.20;99.90
23137;DHT22;11737;50.558;7.258;2023-02-28T04:24:35;1.20;99.90
23137;DHT22;11737;50.558;7.258;2023-02-28T04:27:02;1.20;99.90
23137;DHT22;11737;50.558;7.258;2023-02-28T04:29:32;1.20;99.90
23137;DHT22;11737;50.558;7.258;2023-02-28T04:32:00;1.20;99.90
23137;DHT22;11737;50.558;7.258;2023-02-28T04:34:31;1.30;99.90
23137;DHT22;11737;50.558;7.258;2023-02-28T04:36:59;1.40;99.90
23137;DHT22;11737;50.558;7.258;2023-02-28T04:39:27;1.50;99.90
23137;DHT22;11737;50.558;7.258;2023-02-28T04:41:54;1.50;99.90
23137;DHT22;11737;50.558;7.258;2023-02-28T04:44:23;1.50;99.90
23137;DHT22;11737;50.558;7.258;2023-02-28T04:46:50;1.40;99.90
23137;DHT22;11737;50.558;7.258;2023-02-28T04:49:18;1.40;99.90
23137;DHT22;11737;50.558;7.258;2023-02-28T04:51:45;1.30;99.90
23137;DHT22;11737;50.558;7.258;2023-02-28T04:54:13;1.30;99.90
23137;DHT22;11737;50.558;7.258;2023-02-28T04:56:42;1.30;99.90
23137;DHT22;11737;50.558;7.258;2023-02-28T04:59:10;1.30;99.90
23137;DHT22;11737;50.558;7.258;2023-02-28T05:01:37;1.30;99.90
23137;DHT22;11737;50.558;7.258;2023-02-28T05:04:05;1.20;99.90
23137;DHT22;11737;50.558;7.258;2023-02-28T05:06:33;1.20;99.90
23137;DHT22;11737;50.558;7.258;2023-02-28T05:09:00;1.10;99.90
23137;DHT22;11737;50.558;7.258;2023-02-28T05:11:33;1.20;99.90
23137;DHT22;11737;50.558;7.258;2023-02-28T05:14:03;1.30;99.90
23137;DHT22;11737;50.558;7.258;2023-02-28T05:16:32;1.30;99.90
23137;DHT22;11737;50.558;7.258;2023-02-28T05:19:00;1.30;99.90
23137;DHT22;11737;50.558;7.258;2023-02-28T05:24:19;1.20;99.90
23137;DHT22;11737;50.558;7.258;2023-02-28T05:27:08;1.20;99.90
23137;DHT22;11737;50.558;7.258;2023-02-28T05:29:35;1.20;99.90
23137;DHT22;11737;50.558;7.258;2023-02-28T05:32:04;1.20;99.90
23137;DHT22;11737;50.558;7.258;2023-02-28T05:34:32;1.20;99.90
23137;DHT22;11737;50.558;7.258;2023-02-28T05:36:59;1.10;99.90
23137;DHT22;11737;50.558;7.258;2023-02-28T05:39:27;1.00;99.90
23137;DHT22;11737;50.558;7.258;2023-02-28T05:41:54;0.90;99.90
23137;DHT22;11737;50.558;7.258;2023-02-28T05:44:22;0.80;99.90
23137;DHT22;11737;50.558;7.258;2023-02-28T05:46:49;0.60;99.90
23137;DHT22;11737;50.558;7.258;2023-02-28T05:49:17;0.50;99.90
23137;DHT22;11737;50.558;7.258;2023-02-28T05:51:44;0.40;99.90
23137;DHT22;11737;50.558;7.258;2023-02-28T05:54:12;0.40;99.90
23137;DHT22;11737;50.558;7.258;2023-02-28T05:56:40;0.40;99.90
23137;DHT22;11737;50.558;7.258;2023-02-28T05:59:09;0.50;99.90
23137;DHT22;11737;50.558;7.258;2023-02-28T06:01:39;0.40;99.90
23137;DHT22;11737;50.558;7.258;2023-02-28T06:04:09;0.40;99.90
23137;DHT22;11737;50.558;7.258;2023-02-28T06:06:37;0.30;99.90
23137;DHT22;11737;50.558;7.258;2023-02-28T06:09:05;0.10;99.90
23137;DHT22;11737;50.558;7.258;2023-02-28T06:11:33;0.00;99.90
23137;DHT22;11737;50.558;7.258;2023-02-28T06:14:02;-0.20;99.90
23137;DHT22;11737;50.558;7.258;2023-02-28T06:16:31;-0.40;99.90
23137;DHT22;11737;50.558;7.258;2023-02-28T06:19:01;-0.60;99.90
23137;DHT22;11737;50.558;7.258;2023-02-28T06:21:30;-0.70;99.90
23137;DHT22;11737;50.558;7.258;2023-02-28T06:23:58;-0.80;99.90
23137;DHT22;11737;50.558;7.258;2023-02-28T06:26:26;-0.80;99.90
23137;DHT22;11737;50.558;7.258;2023-02-28T06:31:48;-0.90;99.90
23137;DHT22;11737;50.558;7.258;2023-02-28T06:34:13;-1.00;99.90
23137;DHT22;11737;50.558;7.258;2023-02-28T06:36:42;-1.00;99.90
23137;DHT22;11737;50.558;7.258;2023-02-28T06:39:09;-1.00;99.90
23137;DHT22;11737;50.558;7.258;2023-02-28T06:41:37;-0.90;99.90
23137;DHT22;11737;50.558;7.258;2023-02-28T06:44:18;-0.80;99.90
23137;DHT22;11737;50.558;7.258;2023-02-28T06:46:43;-0.90;99.90
23137;DHT22;11737;50.558;7.258;2023-02-28T06:49:31;-0.90;99.90
23137;DHT22;11737;50.558;7.258;2023-02-28T06:51:59;-0.90;99.90
23137;DHT22;11737;50.558;7.258;2023-02-28T06:57:17;-0.90;99.90
23137;DHT22;11737;50.558;7.258;2023-02-28T06:59:44;-1.00;99.90
23137;DHT22;11737;50.558;7.258;2023-02-28T07:02:12;-1.00;99.90
23137;DHT22;11737;50.558;7.258;2023-02-28T07:04:40;-0.90;99.90
23137;DHT22;11737;50.558;7.258;2023-02-28T07:07:09;-0.80;99.90
23137;DHT22;11737;50.558;7.258;2023-02-28T07:09:37;-0.70;99.90
23137;DHT22;11737;50.558;7.258;2023-02-28T07:12:05;-0.70;99.90
23137;DHT22;11737;50.558;7.258;2023-02-28T07:14:36;-0.60;99.90
23137;DHT22;11737;50.558;7.258;2023-02-28T07:17:06;-0.60;99.90
23137;DHT22;11737;50.558;7.258;2023-02-28T07:22:21;-0.30;99.90
23137;DHT22;11737;50.558;7.258;2023-02-28T07:24:49;-0.30;99.90
23137;DHT22;11737;50.558;7.258;2023-02-28T07:27:18;-0.10;99.90
23137;DHT22;11737;50.558;7.258;2023-02-28T07:29:47;0.00;99.90
23137;DHT22;11737;50.558;7.258;2023-02-28T07:32:14;0.00;99.90
23137;DHT22;11737;50.558;7.258;2023-02-28T07:34:42;0.00;99.90
23137;DHT22;11737;50.558;7.258;2023-02-28T07:37:09;0.10;99.90
23137;DHT22;11737;50.558;7.258;2023-02-28T07:39:37;0.10;99.90
23137;DHT22;11737;50.558;7.258;2023-02-28T07:42:05;0.30;99.90
23137;DHT22;11737;50.558;7.258;2023-02-28T07:44:35;0.40;99.90
23137;DHT22;11737;50.558;7.258;2023-02-28T07:47:04;0.70;99.90
23137;DHT22;11737;50.558;7.258;2023-02-28T07:49:31;0.90;99.90
23137;DHT22;11737;50.558;7.258;2023-02-28T07:51:59;1.00;99.90
23137;DHT22;11737;50.558;7.258;2023-02-28T07:54:26;1.20;99.90
23137;DHT22;11737;50.558;7.258;2023-02-28T07:56:54;1.30;99.90
23137;DHT22;11737;50.558;7.258;2023-02-28T07:59:21;1.40;99.90
23137;DHT22;11737;50.558;7.258;2023-02-28T08:01:49;1.70;99.90
23137;DHT22;11737;50.558;7.258;2023-02-28T08:04:17;1.80;99.90
23137;DHT22;11737;50.558;7.258;2023-02-28T08:06:45;2.10;99.90
23137;DHT22;11737;50.558;7.258;2023-02-28T08:09:33;2.20;99.90
23137;DHT22;11737;50.558;7.258;2023-02-28T08:12:01;2.30;99.90
23137;DHT22;11737;50.558;7.258;2023-02-28T08:14:29;2.50;99.90
23137;DHT22;11737;50.558;7.258;2023-02-28T08:19:48;3.00;99.90
23137;DHT22;11737;50.558;7.258;2023-02-28T08:22:15;3.20;99.90
23137;DHT22;11737;50.558;7.258;2023-02-28T08:24:43;3.30;99.90
23137;DHT22;11737;50.558;7.258;2023-02-28T08:27:11;3.40;99.90
23137;DHT22;11737;50.558;7.258;2023-02-28T08:29:39;3.50;99.90
23137;DHT22;11737;50.558;7.258;2023-02-28T08:32:07;3.70;99.90
23137;DHT22;11737;50.558;7.258;2023-02-28T08:34:35;3.80;99.90
23137;DHT22;11737;50.558;7.258;2023-02-28T08:37:03;4.00;99.90
23137;DHT22;11737;50.558;7.258;2023-02-28T08:39:38;4.10;99.90
23137;DHT22;11737;50.558;7.258;2023-02-28T08:42:06;4.10;99.90
23137;DHT22;11737;50.558;7.258;2023-02-28T08:44:34;4.20;99.90
23137;DHT22;11737;50.558;7.258;2023-02-28T08:47:02;4.20;99.90
23137;DHT22;11737;50.558;7.258;2023-02-28T08:52:17;4.30;99.90
23137;DHT22;11737;50.558;7.258;2023-02-28T08:54:45;4.40;99.90
23137;DHT22;11737;50.558;7.258;2023-02-28T08:57:12;4.40;99.90
23137;DHT22;11737;50.558;7.258;2023-02-28T08:59:40;4.50;99.90
23137;DHT22;11737;50.558;7.258;2023-02-28T09:02:10;4.60;99.90
23137;DHT22;11737;50.558;7.258;2023-02-28T09:04:38;4.60;99.90
23137;DHT22;11737;50.558;7.258;2023-02-28T09:07:05;4.60;99.90
23137;DHT22;11737;50.558;7.258;2023-02-28T09:09:34;4.60;99.90
23137;DHT22;11737;50.558;7.258;2023-02-28T09:12:02;4.60;99.90
23137;DHT22;11737;50.558;7.258;2023-02-28T09:14:30;4.80;99.90
23137;DHT22;11737;50.558;7.258;2023-02-28T09:16:58;4.90;99.90
23137;DHT22;11737;50.558;7.258;2023-02-28T09:19:26;4.80;99.90
23137;DHT22;11737;50.558;7.258;2023-02-28T09:21:53;4.80;99.90
23137;DHT22;11737;50.558;7.258;2023-02-28T09:24:21;5.10;99.90
23137;DHT22;11737;50.558;7.258;2023-02-28T09:26:48;5.20;99.90
23137;DHT22;11737;50.558;7.258;2023-02-28T09:29:16;5.20;99.90
23137;DHT22;11737;50.558;7.258;2023-02-28T09:31:44;5.40;99.90
23137;DHT22;11737;50.558;7.258;2023-02-28T09:34:11;5.60;99.90
23137;DHT22;11737;50.558;7.258;2023-02-28T09:36:39;5.80;99.90
23137;DHT22;11737;50.558;7.258;2023-02-28T09:39:07;6.10;99.90
23137;DHT22;11737;50.558;7.258;2023-02-28T09:41:54;6.20;99.90
23137;DHT22;11737;50.558;7.258;2023-02-28T09:44:40;6.40;99.90
23137;DHT22;11737;50.558;7.258;2023-02-28T09:47:31;6.40;99.90
23137;DHT22;11737;50.558;7.258;2023-02-28T09:49:46;6.50;99.90
23137;DHT22;11737;50.558;7.258;2023-02-28T09:52:19;6.50;99.90
23137;DHT22;11737;50.558;7.258;2023-02-28T09:54:47;6.30;99.90
23137;DHT22;11737;50.558;7.258;2023-02-28T09:57:23;6.30;99.90
23137;DHT22;11737;50.558;7.258;2023-02-28T10:08:25;6.80;99.90
23137;DHT22;11737;50.558;7.258;2023-02-28T10:11:00;7.00;99.90
23137;DHT22;11737;50.558;7.258;2023-02-28T10:13:59;7.20;97.70
23137;DHT22;11737;50.558;7.258;2023-02-28T10:16:48;7.30;99.90
23137;DHT22;11737;50.558;7.258;2023-02-28T10:19:20;7.60;99.90
23137;DHT22;11737;50.558;7.258;2023-02-28T10:24:33;8.20;99.90
23137;DHT22;11737;50.558;7.258;2023-02-28T10:27:22;8.40;99.90
23137;DHT22;11737;50.558;7.258;2023-02-28T10:32:42;8.90;98.30
23137;DHT22;11737;50.558;7.258;2023-02-28T10:35:21;9.30;99.90
23137;DHT22;11737;50.558;7.258;2023-02-28T10:37:59;9.50;99.90
23137;DHT22;11737;50.558;7.258;2023-02-28T10:43:04;10.10;97.40
23137;DHT22;11737;50.558;7.258;2023-02-28T10:45:34;10.20;95.70
23137;DHT22;11737;50.558;7.258;2023-02-28T10:50:51;10.30;99.90
23137;DHT22;11737;50.558;7.258;2023-02-28T10:56:15;10.20;94.30
23137;DHT22;11737;50.558;7.258;2023-02-28T11:01:47;10.30;97.90
23137;DHT22;11737;50.558;7.258;2023-02-28T11:07:22;10.80;96.10
23137;DHT22;11737;50.558;7.258;2023-02-28T11:09:52;10.80;96.30
23137;DHT22;11737;50.558;7.258;2023-02-28T11:12:40;10.60;94.80
23137;DHT22;11737;50.558;7.258;2023-02-28T11:15:34;10.50;92.90
23137;DHT22;11737;50.558;7.258;2023-02-28T11:21:15;10.30;97.60
23137;DHT22;11737;50.558;7.258;2023-02-28T11:23:40;10.30;91.80
23137;DHT22;11737;50.558;7.258;2023-02-28T11:26:08;10.20;92.80
23137;DHT22;11737;50.558;7.258;2023-02-28T11:28:40;10.20;91.80
23137;DHT22;11737;50.558;7.258;2023-02-28T11:34:20;10.20;94.40
23137;DHT22;11737;50.558;7.258;2023-02-28T11:36:33;10.20;95.20
23137;DHT22;11737;50.558;7.258;2023-02-28T11:39:07;10.30;93.80
23137;DHT22;11737;50.558;7.258;2023-02-28T11:41:38;10.50;99.90
23137;DHT22;11737;50.558;7.258;2023-02-28T11:46:56;10.60;94.40
23137;DHT22;11737;50.558;7.258;2023-02-28T11:49:49;10.70;99.90
23137;DHT22;11737;50.558;7.258;2023-02-28T11:58:26;10.60;98.90
23137;DHT22;11737;50.558;7.258;2023-02-28T12:06:54;10.90;99.90
23137;DHT22;11737;50.558;7.258;2023-02-28T12:20:54;10.30;94.80
23137;DHT22;11737;50.558;7.258;2023-02-28T12:28:39;10.30;95.50
23137;DHT22;11737;50.558;7.258;2023-02-28T12:31:24;10.40;96.90
23137;DHT22;11737;50.558;7.258;2023-02-28T12:33:53;10.30;95.10
23137;DHT22;11737;50.558;7.258;2023-02-28T12:36:22;10.30;97.30
23137;DHT22;11737;50.558;7.258;2023-02-28T12:39:08;10.40;85.40
23137;DHT22;11737;50.558;7.258;2023-02-28T12:41:42;10.50;99.90
23137;DHT22;11737;50.558;7.258;2023-02-28T12:44:19;10.70;99.90
23137;DHT22;11737;50.558;7.258;2023-02-28T12:46:51;11.00;99.90
23137;DHT22;11737;50.558;7.258;2023-02-28T12:52:11;11.20;99.90
23137;DHT22;11737;50.558;7.258;2023-02-28T12:54:53;11.00;97.70
23137;DHT22;11737;50.558;7.258;2023-02-28T12:57:35;10.70;94.10
23137;DHT22;11737;50.558;7.258;2023-02-28T13:00:10;10.70;96.20
23137;DHT22;11737;50.558;7.258;2023-02-28T13:02:51;10.60;95.00
23137;DHT22;11737;50.558;7.258;2023-02-28T13:06:16;10.70;94.60
23137;DHT22;11737;50.558;7.258;2023-02-28T13:08:30;10.80;94.30
23137;DHT22;11737;50.558;7.258;2023-02-28T13:10:57;11.00;99.40
23137;DHT22;11737;50.558;7.258;2023-02-28T13:13:27;11.00;92.50
23137;DHT22;11737;50.558;7.258;2023-02-28T13:16:07;11.20;95.60
23137;DHT22;11737;50.558;7.258;2023-02-28T13:18:42;11.20;92.40
23137;DHT22;11737;50.558;7.258;2023-02-28T13:21:21;11.20;98.70
23137;DHT22;11737;50.558;7.258;2023-02-28T13:29:32;11.00;91.90
23137;DHT22;11737;50.558;7.258;2023-02-28T13:34:39;11.10;96.30
23137;DHT22;11737;50.558;7.258;2023-02-28T13:40:41;11.00;92.30
23137;DHT22;11737;50.558;7.258;2023-02-28T13:45:27;11.00;77.80
23137;DHT22;11737;50.558;7.258;2023-02-28T13:48:01;10.80;86.30
23137;DHT22;11737;50.558;7.258;2023-02-28T13:50:42;10.70;89.90
23137;DHT22;11737;50.558;7.258;2023-02-28T13:53:24;10.70;86.90
23137;DHT22;11737;50.558;7.258;2023-02-28T13:56:07;10.60;85.80
23137;DHT22;11737;50.558;7.258;2023-02-28T14:01:22;10.60;89.40
23137;DHT22;11737;50.558;7.258;2023-02-28T14:09:27;10.60;96.10
23137;DHT22;11737;50.558;7.258;2023-02-28T14:11:55;10.80;94.30
23137;DHT22;11737;50.558;7.258;2023-02-28T14:17:08;11.10;91.30
23137;DHT22;11737;50.558;7.258;2023-02-28T14:19:38;11.10;89.70
23137;DHT22;11737;50.558;7.258;2023-02-28T14:31:08;10.90;91.60
23137;DHT22;11737;50.558;7.258;2023-02-28T14:36:20;10.90;93.60
23137;DHT22;11737;50.558;7.258;2023-02-28T14:38:52;10.90;82.50
23137;DHT22;11737;50.558;7.258;2023-02-28T14:41:40;10.90;97.20
23137;DHT22;11737;50.558;7.258;2023-02-28T14:43:56;10.90;94.20
23137;DHT22;11737;50.558;7.258;2023-02-28T14:46:35;11.00;94.00
23137;DHT22;11737;50.558;7.258;2023-02-28T14:49:29;11.10;93.90
23137;DHT22;11737;50.558;7.258;2023-02-28T14:52:23;11.00;92.60
23137;DHT22;11737;50.558;7.258;2023-02-28T14:55:13;11.00;91.20
23137;DHT22;11737;50.558;7.258;2023-02-28T14:57:53;11.10;92.80
23137;DHT22;11737;50.558;7.258;2023-02-28T15:00:51;10.90;91.80
23137;DHT22;11737;50.558;7.258;2023-02-28T15:03:22;10.90;91.20
23137;DHT22;11737;50.558;7.258;2023-02-28T15:06:00;10.80;91.40
23137;DHT22;11737;50.558;7.258;2023-02-28T15:08:24;10.80;94.00
23137;DHT22;11737;50.558;7.258;2023-02-28T15:10:59;10.90;95.20
23137;DHT22;11737;50.558;7.258;2023-02-28T15:21:38;11.40;90.80
23137;DHT22;11737;50.558;7.258;2023-02-28T15:24:13;11.60;90.60
23137;DHT22;11737;50.558;7.258;2023-02-28T15:29:30;12.00;89.80
23137;DHT22;11737;50.558;7.258;2023-02-28T15:32:06;12.30;86.30
23137;DHT22;11737;50.558;7.258;2023-02-28T15:34:39;12.60;82.40
23137;DHT22;11737;50.558;7.258;2023-02-28T15:40:26;13.20;92.40
23137;DHT22;11737;50.558;7.258;2023-02-28T15:43:28;13.50;83.20
23137;DHT22;11737;50.558;7.258;2023-02-28T15:46:07;13.60;81.70
23137;DHT22;11737;50.558;7.258;2023-02-28T15:48:51;13.90;77.30
23137;DHT22;11737;50.558;7.258;2023-02-28T15:51:38;14.10;80.00
23137;DHT22;11737;50.558;7.258;2023-02-28T15:54:08;14.40;72.90
23137;DHT22;11737;50.558;7.258;2023-02-28T15:56:44;14.40;75.00
23137;DHT22;11737;50.558;7.258;2023-02-28T15:59:28;14.50;73.60
23137;DHT22;11737;50.558;7.258;2023-02-28T16:02:13;14.60;80.10
23137;DHT22;11737;50.558;7.258;2023-02-28T16:07:58;14.90;70.10
23137;DHT22;11737;50.558;7.258;2023-02-28T16:10:29;14.90;70.70
23137;DHT22;11737;50.558;7.258;2023-02-28T16:12:57;15.00;67.00
23137;DHT22;11737;50.558;7.258;2023-02-28T16:15:30;15.10;68.40
23137;DHT22;11737;50.558;7.258;2023-02-28T16:17:58;15.00;65.50
23137;DHT22;11737;50.558;7.258;2023-02-28T16:20:28;14.80;64.70
23137;DHT22;11737;50.558;7.258;2023-02-28T16:22:57;14.10;65.40
23137;DHT22;11737;50.558;7.258;2023-02-28T16:25:37;13.60;66.80
23137;DHT22;11737;50.558;7.258;2023-02-28T16:28:18;13.00;66.40
23137;DHT22;11737;50.558;7.258;2023-02-28T16:30:35;12.30;66.50
23137;DHT22;11737;50.558;7.258;2023-02-28T16:33:03;11.80;68.80
23137;DHT22;11737;50.558;7.258;2023-02-28T16:35:31;11.20;73.40
23137;DHT22;11737;50.558;7.258;2023-02-28T16:37:58;10.80;75.40
23137;DHT22;11737;50.558;7.258;2023-02-28T16:40:26;10.50;74.30
23137;DHT22;11737;50.558;7.258;2023-02-28T16:42:57;10.10;77.90
23137;DHT22;11737;50.558;7.258;2023-02-28T16:45:45;9.90;78.60
23137;DHT22;11737;50.558;7.258;2023-02-28T16:48:15;9.70;80.60
23137;DHT22;11737;50.558;7.258;2023-02-28T16:50:43;9.60;81.40
23137;DHT22;11737;50.558;7.258;2023-02-28T16:53:11;9.40;78.90
23137;DHT22;11737;50.558;7.258;2023-02-28T16:55:39;9.30;80.50
23137;DHT22;11737;50.558;7.258;2023-02-28T16:58:13;9.10;81.40
23137;DHT22;11737;50.558;7.258;2023-02-28T17:00:38;8.90;85.90
23137;DHT22;11737;50.558;7.258;2023-02-28T17:03:16;8.70;81.10
23137;DHT22;11737;50.558;7.258;2023-02-28T17:05:39;8.60;79.60
23137;DHT22;11737;50.558;7.258;2023-02-28T17:08:08;8.50;79.10
23137;DHT22;11737;50.558;7.258;2023-02-28T17:10:36;8.30;78.80
23137;DHT22;11737;50.558;7.258;2023-02-28T17:13:05;8.10;79.30
23137;DHT22;11737;50.558;7.258;2023-02-28T17:15:35;8.00;80.00
23137;DHT22;11737;50.558;7.258;2023-02-28T17:18:04;7.80;80.60
23137;DHT22;11737;50.558;7.258;2023-02-28T17:20:51;7.60;79.60
23137;DHT22;11737;50.558;7.258;2023-02-28T17:23:18;7.40;79.70
23137;DHT22;11737;50.558;7.258;2023-02-28T17:30:56;7.00;84.50
23137;DHT22;11737;50.558;7.258;2023-02-28T17:33:24;6.90;83.80
23137;DHT22;11737;50.558;7.258;2023-02-28T17:35:51;6.80;85.90
23137;DHT22;11737;50.558;7.258;2023-02-28T17:38:19;6.80;85.70
23137;DHT22;11737;50.558;7.258;2023-02-28T17:40:49;6.70;85.20
23137;DHT22;11737;50.558;7.258;2023-02-28T17:43:16;6.60;85.10
23137;DHT22;11737;50.558;7.258;2023-02-28T17:45:44;6.50;85.30
23137;DHT22;11737;50.558;7.258;2023-02-28T17:48:11;6.30;86.50
23137;DHT22;11737;50.558;7.258;2023-02-28T17:50:39;6.30;87.70
23137;DHT22;11737;50.558;7.258;2023-02-28T17:53:07;6.30;88.20
23137;DHT22;11737;50.558;7.258;2023-02-28T17:55:35;6.30;87.20
23137;DHT22;11737;50.558;7.258;2023-02-28T17:58:03;6.20;87.90
23137;DHT22;11737;50.558;7.258;2023-02-28T18:00:31;6.10;88.10
23137;DHT22;11737;50.558;7.258;2023-02-28T18:03:00;5.90;88.80
23137;DHT22;11737;50.558;7.258;2023-02-28T18:05:27;5.70;90.10
23137;DHT22;11737;50.558;7.258;2023-02-28T18:07:55;5.60;90.30
23137;DHT22;11737;50.558;7.258;2023-02-28T18:10:23;5.50;91.00
23137;DHT22;11737;50.558;7.258;2023-02-28T18:12:51;5.40;91.80
23137;DHT22;11737;50.558;7.258;2023-02-28T18:15:21;5.30;91.60
23137;DHT22;11737;50.558;7.258;2023-02-28T18:17:49;5.20;92.00
23137;DHT22;11737;50.558;7.258;2023-02-28T18:20:16;5.10;93.40
23137;DHT22;11737;50.558;7.258;2023-02-28T18:22:44;5.00;92.50
23137;DHT22;11737;50.558;7.258;2023-02-28T18:25:13;4.90;92.30
23137;DHT22;11737;50.558;7.258;2023-02-28T18:27:43;4.90;92.60
23137;DHT22;11737;50.558;7.258;2023-02-28T18:30:13;4.70;92.00
23137;DHT22;11737;50.558;7.258;2023-02-28T18:32:40;4.50;92.20
23137;DHT22;11737;50.558;7.258;2023-02-28T18:35:08;4.30;91.80
23137;DHT22;11737;50.558;7.258;2023-02-28T18:37:35;4.10;92.60
23137;DHT22;11737;50.558;7.258;2023-02-28T18:40:05;4.00;93.00
23137;DHT22;11737;50.558;7.258;2023-02-28T18:42:53;3.90;93.30
23137;DHT22;11737;50.558;7.258;2023-02-28T18:45:21;3.80;93.40
23137;DHT22;11737;50.558;7.258;2023-02-28T18:47:48;3.70;93.70
23137;DHT22;11737;50.558;7.258;2023-02-28T18:50:16;3.60;94.40
23137;DHT22;11737;50.558;7.258;2023-02-28T18:52:43;3.60;95.20
23137;DHT22;11737;50.558;7.258;2023-02-28T18:55:11;3.50;94.50
23137;DHT22;11737;50.558;7.258;2023-02-28T18:57:40;3.40;94.80
23137;DHT22;11737;50.558;7.258;2023-02-28T19:00:09;3.40;95.10
23137;DHT22;11737;50.558;7.258;2023-02-28T19:02:38;3.40;95.70
23137;DHT22;11737;50.558;7.258;2023-02-28T19:05:06;3.40;95.20
23137;DHT22;11737;50.558;7.258;2023-02-28T19:07:34;3.40;95.90
23137;DHT22;11737;50.558;7.258;2023-02-28T19:10:02;3.40;95.30
23137;DHT22;11737;50.558;7.258;2023-02-28T19:12:39;3.30;95.30
23137;DHT22;11737;50.558;7.258;2023-02-28T19:15:04;3.20;95.30
23137;DHT22;11737;50.558;7.258;2023-02-28T19:17:33;3.00;95.50